Greendale, Wisconsin
Current Conditions -  °F | °C
As of 4:52 AM on Friday 24 Oct 2014 (Local Time) from KMKE Reporting Station
Haze Haze  
Wind Chill: 52°   Ceiling: 500
Heat Index: 52°   Visibility: 6mi
Dew Point: 49°   Wind: 5mph
Humidity: 89%   Direction: 280°W
Pressure: 30.04"   Gusts: NA
Location:  42.94°N, 87.99°W
Report Text: KMKE 240952Z 28004KT 6SM BR OVC005 11/09 A3004 RMK AO2 SLP175 T01110094
Loading
Personal Weather Stations






























Interactive Weather Map
Tropical Storm Tracking
New forecast layout! Learn more

10-Day Weather Forecast

Advertisements
Track Severe Weather on mobile